Time;durP1;ratioP1;P1;durP2;ratioP2;P2;SDS_P1;SDS_P2;PMS_P1;PMS_P2;Temp;Humidity;BMP_temperature;BMP_pressure;BME280_temperature;BME280_humidity;BME280_pressure;Samples;Min_cycle;Max_cycle;Signal;HPM_P1;HPM_P2
2022/02/12 00:00:07;;;;;;;25.80;14.63;;;1.40;99.90;;;;;;5071198;28;20408;-56
2022/02/12 00:02:33;;;;;;;24.75;14.15;;;1.40;99.90;;;;;;5071815;28;20513;-56
2022/02/12 00:04:58;;;;;;;37.53;16.57;;;1.80;99.90;;;;;;5069434;28;20847;-57
2022/02/12 00:07:24;;;;;;;32.50;16.10;;;1.40;99.90;;;;;;5071796;28;20991;-57
2022/02/12 00:09:50;;;;;;;29.60;15.98;;;1.40;99.90;;;;;;5071614;28;20486;-57
2022/02/12 00:12:15;;;;;;;31.90;17.07;;;1.40;99.90;;;;;;5071357;28;20398;-57
2022/02/12 00:14:42;;;;;;;32.88;17.88;;;1.50;99.90;;;;;;5070889;28;20463;-56
2022/02/12 00:17:08;;;;;;;33.35;18.83;;;1.40;99.90;;;;;;5052077;28;20392;-57
2022/02/12 00:19:34;;;;;;;32.13;17.58;;;1.30;99.90;;;;;;5071674;28;20498;-56
2022/02/12 00:22:00;;;;;;;35.15;18.85;;;3.00;99.90;;;;;;5070449;28;20462;-56
2022/02/12 00:24:25;;;;;;;35.87;19.87;;;1.30;99.90;;;;;;5071262;28;20749;-57
2022/02/12 00:26:51;;;;;;;34.03;19.40;;;1.20;99.90;;;;;;5071922;28;20418;-58
2022/02/12 00:29:17;;;;;;;33.42;19.80;;;1.20;99.90;;;;;;5066582;28;20477;-56
2022/02/12 00:31:42;;;;;;;34.93;18.97;;;1.10;99.90;;;;;;5062932;28;20749;-56
2022/02/12 00:34:08;;;;;;;33.60;18.50;;;1.10;99.90;;;;;;5070956;28;20395;-56
2022/02/12 00:36:34;;;;;;;37.15;19.15;;;1.10;99.90;;;;;;5071555;28;20383;-57
2022/02/12 00:38:59;;;;;;;37.13;19.17;;;1.00;99.90;;;;;;5052990;28;20726;-57
2022/02/12 00:41:25;;;;;;;35.92;19.50;;;1.00;99.90;;;;;;5071713;28;20404;-57
2022/02/12 00:43:50;;;;;;;38.30;19.40;;;1.00;99.90;;;;;;5053690;28;20403;-57
2022/02/12 00:46:16;;;;;;;36.67;19.17;;;0.90;99.90;;;;;;5068528;28;20415;-57
2022/02/12 00:48:42;;;;;;;34.75;18.75;;;0.80;99.90;;;;;;5051455;28;20421;-57
2022/02/12 00:51:07;;;;;;;37.83;18.87;;;1.50;99.90;;;;;;5050499;28;20418;-57
2022/02/12 00:53:33;;;;;;;34.30;19.17;;;0.80;99.90;;;;;;5057985;28;20401;-57
2022/02/12 00:55:59;;;;;;;31.83;18.33;;;0.80;99.90;;;;;;5063564;28;20377;-58
2022/02/12 00:58:24;;;;;;;36.67;18.87;;;2.00;99.90;;;;;;5056466;28;20405;-56
2022/02/12 01:00:50;;;;;;;33.60;17.90;;;0.80;99.90;;;;;;5059508;28;20409;-58
2022/02/12 01:03:15;;;;;;;32.10;17.35;;;0.80;99.90;;;;;;5050243;28;20416;-56
2022/02/12 01:05:41;;;;;;;34.50;18.10;;;0.80;99.90;;;;;;5050534;28;20386;-56
2022/02/12 01:08:07;;;;;;;36.67;18.17;;;0.70;99.90;;;;;;5050226;28;20377;-56
2022/02/12 01:10:34;;;;;;;30.80;17.10;;;0.70;99.90;;;;;;5050830;28;20393;-56
2022/02/12 01:13:01;;;;;;;32.13;16.88;;;0.80;99.90;;;;;;5050019;28;20373;-57
2022/02/12 01:15:27;;;;;;;33.83;17.50;;;0.80;99.90;;;;;;5050851;28;20432;-57
2022/02/12 01:17:52;;;;;;;33.78;18.00;;;0.80;99.90;;;;;;5050340;28;20421;-58
2022/02/12 01:20:18;;;;;;;36.80;18.27;;;0.80;99.90;;;;;;5050668;28;20428;-56
2022/02/12 01:22:46;;;;;;;32.73;17.27;;;2.50;99.90;;;;;;5050766;28;20743;-56
2022/02/12 01:25:11;;;;;;;37.33;18.60;;;2.10;99.90;;;;;;5049839;28;20385;-56
2022/02/12 01:27:37;;;;;;;35.00;18.08;;;0.60;99.90;;;;;;5050430;28;20874;-56
2022/02/12 01:30:04;;;;;;;36.00;19.37;;;0.60;99.90;;;;;;5049856;28;20405;-56
2022/02/12 01:32:30;;;;;;;33.42;17.70;;;0.70;99.90;;;;;;5050871;28;20389;-56
2022/02/12 01:34:56;;;;;;;34.23;17.80;;;2.60;99.90;;;;;;5050114;28;20719;-58
2022/02/12 01:37:23;;;;;;;33.88;19.52;;;0.80;99.90;;;;;;5050611;28;20416;-56
2022/02/12 01:39:50;;;;;;;36.22;18.35;;;1.00;99.90;;;;;;5050242;28;20739;-56
2022/02/12 01:42:16;;;;;;;34.85;18.30;;;0.80;99.90;;;;;;5049778;28;20618;-56
2022/02/12 01:44:42;;;;;;;41.15;23.00;;;0.90;99.90;;;;;;5050522;28;20382;-56
2022/02/12 01:47:09;;;;;;;34.88;19.35;;;0.80;99.90;;;;;;5049905;28;20415;-56
2022/02/12 01:49:35;;;;;;;33.38;17.60;;;2.60;99.90;;;;;;5057044;28;20457;-56
2022/02/12 01:52:07;;;;;;;34.15;18.08;;;0.60;99.90;;;;;;5059527;28;20388;-56
2022/02/12 01:54:33;;;;;;;31.50;17.33;;;2.40;99.90;;;;;;5032438;28;20743;-56
2022/02/12 01:57:01;;;;;;;35.58;17.60;;;0.40;99.90;;;;;;5049445;28;20389;-56
2022/02/12 01:59:29;;;;;;;35.38;17.80;;;0.30;99.90;;;;;;5050127;28;20382;-56
2022/02/12 02:01:55;;;;;;;29.63;17.45;;;0.30;99.90;;;;;;5049425;28;20420;-58
2022/02/12 02:04:21;;;;;;;34.03;18.40;;;0.30;99.90;;;;;;5049724;28;20385;-56
2022/02/12 02:06:48;;;;;;;35.10;18.33;;;1.10;99.90;;;;;;5049691;28;20424;-56
2022/02/12 02:09:18;;;;;;;35.20;17.55;;;0.50;99.90;;;;;;5049262;28;20404;-56
2022/02/12 02:11:45;;;;;;;35.60;17.58;;;0.50;99.90;;;;;;5049655;28;20499;-56
2022/02/12 02:14:11;;;;;;;36.53;17.50;;;0.50;99.90;;;;;;5049145;28;20435;-56
2022/02/12 02:16:40;;;;;;;29.73;15.75;;;1.80;99.90;;;;;;5050113;28;20417;-56
2022/02/12 02:19:07;;;;;;;27.88;15.10;;;2.30;99.90;;;;;;5048210;28;20416;-55
2022/02/12 02:21:35;;;;;;;30.95;16.10;;;0.50;99.90;;;;;;5049792;28;20401;-56
2022/02/12 02:24:02;;;;;;;28.70;16.52;;;0.40;99.90;;;;;;5049174;28;20425;-56
2022/02/12 02:26:28;;;;;;;29.27;15.63;;;0.40;99.90;;;;;;5049752;28;20464;-56
2022/02/12 02:28:54;;;;;;;31.35;16.05;;;0.40;99.90;;;;;;5049256;28;20399;-58
2022/02/12 02:31:20;;;;;;;31.50;17.08;;;0.40;99.90;;;;;;5049326;28;20851;-57
2022/02/12 02:33:46;;;;;;;35.97;16.27;;;0.20;99.90;;;;;;5049502;28;20370;-56
2022/02/12 02:36:14;;;;;;;29.45;16.38;;;0.70;99.90;;;;;;5031191;28;20390;-56
2022/02/12 02:38:39;;;;;;;28.70;14.50;;;0.30;99.90;;;;;;5049579;28;20432;-57
2022/02/12 02:41:05;;;;;;;28.63;15.80;;;0.30;99.90;;;;;;5048510;28;20404;-57
2022/02/12 02:43:31;;;;;;;32.70;16.25;;;1.50;99.90;;;;;;5058801;28;20403;-55
2022/02/12 02:45:57;;;;;;;32.10;16.43;;;0.20;99.90;;;;;;5051021;28;20386;-58
2022/02/12 02:48:23;;;;;;;29.93;16.80;;;0.30;99.90;;;;;;5049387;28;20877;-55
2022/02/12 02:56:17;;;;;;;31.48;17.40;;;2.00;99.90;;;;;;5063053;28;20371;-56
2022/02/12 02:58:46;;;;;;;29.65;15.63;;;0.60;99.90;;;;;;5069282;28;20894;-56
2022/02/12 03:01:17;;;;;;;30.75;16.20;;;1.80;99.90;;;;;;5068220;28;20838;-55
2022/02/12 03:03:45;;;;;;;31.87;16.17;;;0.30;99.90;;;;;;5069291;28;20394;-55
2022/02/12 03:06:12;;;;;;;32.30;16.30;;;0.20;99.90;;;;;;5068607;28;20414;-55
2022/02/12 03:08:39;;;;;;;31.25;15.60;;;0.40;99.90;;;;;;5051297;28;20715;-55
2022/02/12 03:11:05;;;;;;;29.37;16.07;;;0.00;99.90;;;;;;5068321;28;20943;-55
2022/02/12 03:13:32;;;;;;;31.65;15.70;;;-0.20;99.90;;;;;;5069612;28;20543;-55
2022/02/12 03:15:57;;;;;;;40.83;17.45;;;-0.30;99.90;;;;;;5068998;28;20384;-58
2022/02/12 03:18:23;;;;;;;46.90;17.15;;;-0.40;99.90;;;;;;5068908;28;20892;-55
2022/02/12 03:20:49;;;;;;;58.38;18.40;;;-0.50;99.90;;;;;;5068993;28;20915;-55
2022/02/12 03:23:16;;;;;;;52.03;18.42;;;-0.50;99.90;;;;;;5068585;28;20411;-55
2022/02/12 03:25:42;;;;;;;67.03;21.60;;;-0.60;99.90;;;;;;5069458;28;20494;-55
2022/02/12 03:28:08;;;;;;;47.33;17.98;;;-0.60;99.90;;;;;;5068468;28;20376;-55
2022/02/12 03:30:39;;;;;;;74.18;20.80;;;-0.70;99.90;;;;;;5054070;28;20412;-55
2022/02/12 03:33:06;;;;;;;60.38;20.80;;;-0.70;99.90;;;;;;5072219;28;20375;-55
2022/02/12 03:35:33;;;;;;;71.53;21.00;;;-0.70;99.90;;;;;;5072898;28;20872;-56
2022/02/12 03:38:26;;;;;;;69.47;20.98;;;-0.70;99.90;;;;;;5072649;28;20376;-58
2022/02/12 03:40:56;;;;;;;56.83;18.90;;;-0.90;99.90;;;;;;5072733;28;20403;-56
2022/02/12 03:43:22;;;;;;;79.13;21.90;;;-0.90;99.90;;;;;;5072498;28;20380;-56
2022/02/12 03:45:48;;;;;;;51.30;19.03;;;-0.20;99.90;;;;;;5072442;28;20394;-55
2022/02/12 03:48:14;;;;;;;49.27;17.90;;;-0.90;99.90;;;;;;5071501;28;20400;-55
2022/02/12 03:50:40;;;;;;;37.30;17.30;;;-0.90;99.90;;;;;;5072655;28;20386;-56
2022/02/12 03:53:07;;;;;;;69.32;18.65;;;-0.90;99.90;;;;;;5071804;28;20380;-56
2022/02/12 03:55:37;;;;;;;62.15;19.08;;;0.20;99.90;;;;;;5072770;28;20841;-55
2022/02/12 03:58:04;;;;;;;38.70;17.25;;;-1.00;99.90;;;;;;5067723;28;20397;-55
2022/02/12 04:00:30;;;;;;;30.38;15.90;;;-0.90;99.90;;;;;;5054998;28;20435;-55
2022/02/12 04:02:57;;;;;;;35.23;17.43;;;-1.00;99.90;;;;;;5067036;28;20460;-56
2022/02/12 04:05:23;;;;;;;41.67;16.52;;;-1.00;99.90;;;;;;5071656;28;20376;-56
2022/02/12 04:07:49;;;;;;;37.00;16.70;;;-1.10;99.90;;;;;;5072347;28;20471;-55
2022/02/12 04:10:17;;;;;;;52.53;18.15;;;-1.10;99.90;;;;;;5052838;28;20456;-55
2022/02/12 04:12:44;;;;;;;39.08;17.50;;;-1.20;99.90;;;;;;5057719;28;20849;-57
2022/02/12 04:15:10;;;;;;;35.85;17.38;;;0.70;99.90;;;;;;5053684;28;20391;-57
2022/02/12 04:17:36;;;;;;;36.60;16.33;;;-1.00;99.90;;;;;;5071819;28;20505;-57
2022/02/12 04:20:08;;;;;;;42.60;16.93;;;-1.40;99.90;;;;;;5071506;28;20890;-57
2022/02/12 04:22:35;;;;;;;44.70;17.58;;;-1.30;99.90;;;;;;5069756;28;20387;-57
2022/02/12 04:25:03;;;;;;;41.00;17.10;;;-1.30;99.90;;;;;;5051406;28;20468;-59
2022/02/12 04:27:29;;;;;;;45.80;19.05;;;-1.30;99.90;;;;;;5052412;28;20382;-58
2022/02/12 04:29:54;;;;;;;42.63;17.50;;;-1.40;99.90;;;;;;5051939;28;20801;-57
2022/02/12 04:32:23;;;;;;;61.63;20.25;;;-1.40;99.90;;;;;;5058691;28;20392;-57
2022/02/12 04:34:49;;;;;;;64.80;21.60;;;-1.30;99.90;;;;;;5062795;28;20390;-59
2022/02/12 04:37:15;;;;;;;49.15;18.90;;;-1.30;99.90;;;;;;5065137;28;20475;-57
2022/02/12 04:39:41;;;;;;;50.40;19.65;;;-1.20;99.90;;;;;;5059293;28;20413;-55
2022/02/12 04:42:11;;;;;;;48.17;17.92;;;-1.10;99.90;;;;;;5050076;28;20774;-56
2022/02/12 04:44:45;;;;;;;42.15;17.35;;;-1.10;99.90;;;;;;5051851;28;20377;-55
2022/02/12 04:47:11;;;;;;;37.22;15.45;;;-1.10;99.90;;;;;;5051177;28;20421;-57
2022/02/12 04:49:39;;;;;;;40.85;14.93;;;-1.10;99.90;;;;;;5051426;28;20416;-57
2022/02/12 04:52:06;;;;;;;39.97;15.60;;;-1.20;99.90;;;;;;5049533;28;20753;-57
2022/02/12 04:54:32;;;;;;;26.63;12.85;;;-1.20;99.90;;;;;;5051238;28;20409;-57
2022/02/12 04:56:59;;;;;;;35.45;13.65;;;0.00;99.90;;;;;;5051078;28;20755;-57
2022/02/12 04:59:25;;;;;;;43.80;14.75;;;-1.20;99.90;;;;;;5051082;28;20401;-57
2022/02/12 05:01:51;;;;;;;42.13;12.45;;;-1.30;99.90;;;;;;5051292;28;20441;-58
2022/02/12 05:04:20;;;;;;;51.58;15.27;;;-1.40;99.90;;;;;;5065562;28;20396;-57
2022/02/12 05:06:46;;;;;;;52.17;15.73;;;-1.50;99.90;;;;;;5068001;28;20377;-57
2022/02/12 05:09:13;;;;;;;45.50;14.63;;;-1.50;99.90;;;;;;5050404;28;20382;-57
2022/02/12 05:11:40;;;;;;;41.25;13.38;;;0.60;99.90;;;;;;5057576;28;20399;-57
2022/02/12 05:14:06;;;;;;;35.67;13.10;;;-1.50;99.90;;;;;;5070637;28;20391;-57
2022/02/12 05:16:32;;;;;;;33.03;13.43;;;-1.50;99.90;;;;;;5071153;28;20424;-57
2022/02/12 05:18:58;;;;;;;41.67;14.38;;;-1.40;99.90;;;;;;5052384;28;20402;-57
2022/02/12 05:21:24;;;;;;;36.50;12.40;;;-0.50;99.90;;;;;;5050569;28;20417;-57
2022/02/12 05:23:50;;;;;;;40.13;12.55;;;-1.40;99.90;;;;;;5033113;28;20480;-56
2022/02/12 05:26:16;;;;;;;43.85;13.32;;;0.00;99.90;;;;;;5050179;28;20894;-57
2022/02/12 05:28:42;;;;;;;40.17;13.75;;;-1.60;99.90;;;;;;5050674;28;20870;-57
2022/02/12 05:31:08;;;;;;;59.85;14.27;;;0.10;99.90;;;;;;5050027;28;20961;-57
2022/02/12 05:33:37;;;;;;;83.07;19.35;;;-1.40;99.90;;;;;;5033019;28;20386;-57
2022/02/12 05:36:05;;;;;;;41.05;13.30;;;-1.40;99.90;;;;;;5061074;28;20789;-55
2022/02/12 05:38:31;;;;;;;33.45;12.50;;;-1.30;99.90;;;;;;5070834;28;20388;-57
2022/02/12 05:40:56;;;;;;;38.92;14.15;;;-1.30;99.90;;;;;;5052529;28;20419;-57
2022/02/12 05:43:22;;;;;;;36.47;13.63;;;-1.30;99.90;;;;;;5069634;28;20615;-58
2022/02/12 05:45:48;;;;;;;27.60;12.20;;;-1.40;99.90;;;;;;5070720;28;20418;-57
2022/02/12 05:48:13;;;;;;;29.10;12.50;;;-1.40;99.90;;;;;;5065144;28;20416;-57
2022/02/12 05:50:39;;;;;;;30.23;13.00;;;-1.40;99.90;;;;;;5050662;28;20421;-57
2022/02/12 05:53:05;;;;;;;28.52;13.50;;;-1.30;99.90;;;;;;5049331;28;20878;-57
2022/02/12 05:55:30;;;;;;;27.70;13.20;;;0.10;99.90;;;;;;5050029;28;20408;-57
2022/02/12 05:57:59;;;;;;;31.20;13.20;;;-1.30;99.90;;;;;;5032518;28;20935;-57
2022/02/12 06:00:26;;;;;;;31.48;14.57;;;-1.20;99.90;;;;;;5049788;28;20396;-57
2022/02/12 06:02:52;;;;;;;30.40;13.25;;;-0.20;99.90;;;;;;5032529;28;20389;-55
2022/02/12 06:05:18;;;;;;;31.05;14.60;;;-1.20;99.90;;;;;;5049517;28;20385;-55
2022/02/12 06:07:43;;;;;;;30.45;13.20;;;-1.10;99.90;;;;;;5032355;28;20389;-55
2022/02/12 06:10:10;;;;;;;39.50;14.10;;;-1.10;99.90;;;;;;5049554;28;20385;-55
2022/02/12 06:12:37;;;;;;;37.38;14.77;;;-1.30;99.90;;;;;;5049760;28;20855;-55
2022/02/12 06:15:04;;;;;;;28.88;14.30;;;-1.30;99.90;;;;;;5049201;28;20389;-57
2022/02/12 06:17:29;;;;;;;31.30;13.00;;;-1.20;99.90;;;;;;5049326;28;20858;-56
2022/02/12 06:19:55;;;;;;;30.60;13.98;;;-1.20;99.90;;;;;;5050313;28;20396;-56
2022/02/12 06:22:24;;;;;;;37.97;15.10;;;-1.30;99.90;;;;;;5051201;28;20396;-55
2022/02/12 06:24:51;;;;;;;58.85;16.02;;;0.70;99.90;;;;;;5049103;28;20435;-55
2022/02/12 06:27:17;;;;;;;45.88;14.05;;;-1.10;99.90;;;;;;5056870;28;20429;-56
2022/02/12 06:29:42;;;;;;;58.10;16.37;;;-1.10;99.90;;;;;;5051767;28;20427;-55
2022/02/12 06:32:08;;;;;;;49.38;16.23;;;-1.10;99.90;;;;;;5068931;28;20390;-55
2022/02/12 06:34:34;;;;;;;54.30;16.80;;;-1.10;99.90;;;;;;5069630;28;20746;-55
2022/02/12 06:36:59;;;;;;;56.30;16.30;;;-1.10;99.90;;;;;;5058478;28;20417;-57
2022/02/12 06:39:25;;;;;;;55.78;15.57;;;-1.20;99.90;;;;;;5051500;28;20430;-55
2022/02/12 06:41:50;;;;;;;83.57;18.50;;;-0.20;99.90;;;;;;5060713;28;20450;-55
2022/02/12 06:44:16;;;;;;;68.87;18.00;;;-1.10;99.90;;;;;;5059540;28;20887;-57
2022/02/12 06:46:43;;;;;;;50.45;16.80;;;-1.00;99.90;;;;;;5054410;28;20401;-55
2022/02/12 06:49:09;;;;;;;85.43;20.42;;;-1.00;99.90;;;;;;5048519;28;20413;-55
2022/02/12 06:51:36;;;;;;;79.63;18.65;;;-1.00;99.90;;;;;;5031555;28;20421;-54
2022/02/12 06:54:03;;;;;;;78.10;19.83;;;-0.90;99.90;;;;;;5049086;28;20415;-58
2022/02/12 06:56:29;;;;;;;54.63;17.67;;;-0.80;99.90;;;;;;5048555;28;20378;-55
2022/02/12 06:58:55;;;;;;;56.10;16.40;;;-0.80;99.90;;;;;;5049316;28;20459;-54
2022/02/12 07:01:20;;;;;;;72.10;17.25;;;-0.80;99.90;;;;;;5048199;28;20902;-54
2022/02/12 07:03:46;;;;;;;51.45;16.40;;;0.70;99.90;;;;;;5047971;28;20542;-54
2022/02/12 07:06:12;;;;;;;77.60;18.10;;;-0.70;99.90;;;;;;5061997;28;20397;-54
2022/02/12 07:08:37;;;;;;;71.80;16.13;;;-0.70;99.90;;;;;;5054306;28;20385;-55
2022/02/12 07:11:03;;;;;;;49.88;14.32;;;0.00;99.90;;;;;;5067216;28;20408;-57
2022/02/12 07:13:29;;;;;;;46.88;14.75;;;-0.40;99.90;;;;;;5067464;28;20411;-54
2022/02/12 07:15:56;;;;;;;44.20;14.63;;;-0.40;99.90;;;;;;5064511;28;20385;-54
2022/02/12 07:18:22;;;;;;;36.05;11.70;;;-0.40;99.90;;;;;;5054380;28;20427;-55
2022/02/12 07:20:47;;;;;;;36.83;12.40;;;-0.40;99.90;;;;;;5055857;28;20843;-54
2022/02/12 07:23:13;;;;;;;33.87;12.90;;;-0.40;99.90;;;;;;5058706;28;20529;-55
2022/02/12 07:25:39;;;;;;;40.72;13.30;;;-0.40;99.90;;;;;;5060943;28;20408;-56
2022/02/12 07:28:04;;;;;;;38.10;11.50;;;0.10;99.90;;;;;;5066067;28;20388;-57
2022/02/12 07:30:30;;;;;;;34.60;12.63;;;-0.90;99.90;;;;;;5059804;28;20419;-55
2022/02/12 07:32:56;;;;;;;39.95;13.52;;;0.50;99.90;;;;;;5062290;28;20431;-55
2022/02/12 07:35:22;;;;;;;43.35;12.27;;;0.10;99.90;;;;;;5057753;28;20516;-55
2022/02/12 07:37:49;;;;;;;40.27;13.03;;;0.30;99.90;;;;;;5055200;28;20750;-55
2022/02/12 07:40:16;;;;;;;26.57;11.10;;;1.90;99.90;;;;;;5059529;28;20431;-55
2022/02/12 07:42:44;;;;;;;31.65;11.10;;;0.90;99.90;;;;;;5057768;28;20422;-54
2022/02/12 07:45:10;;;;;;;32.03;10.93;;;1.00;99.90;;;;;;5055313;28;20409;-55
2022/02/12 07:47:36;;;;;;;33.15;10.70;;;1.10;99.90;;;;;;5061289;28;20412;-56
2022/02/12 07:50:03;;;;;;;37.33;11.18;;;1.40;99.90;;;;;;5059099;28;20402;-57
2022/02/12 07:52:29;;;;;;;31.00;11.38;;;1.40;99.90;;;;;;5056470;28;20396;-54
2022/02/12 07:54:55;;;;;;;27.42;10.88;;;;;;;;;;5069577;28;20405;-55
2022/02/12 07:57:22;;;;;;;20.73;10.88;;;;;;;;;;5059095;28;20945;-58
2022/02/12 07:59:49;;;;;;;20.83;10.98;;;;;;;;;;5062939;28;20528;-57
2022/02/12 08:02:15;;;;;;;21.55;11.27;;;;;;;;;;5062842;28;20434;-57
2022/02/12 08:04:41;;;;;;;18.73;9.90;;;;;;;;;;5057560;28;20389;-57
2022/02/12 08:09:52;;;;;;;16.48;8.95;;;;;;;;;;5079534;28;20405;-57
2022/02/12 08:12:20;;;;;;;17.38;9.27;;;;;;;;;;5068121;28;20384;-57
2022/02/12 08:14:47;;;;;;;19.20;10.93;;;;;;;;;;5069161;28;20380;-58
2022/02/12 08:17:17;;;;;;;17.98;11.00;;;;;;;;;;5059571;28;20418;-56
2022/02/12 08:19:47;;;;;;;19.88;14.05;;;9.10;99.90;;;;;;5055879;28;20400;-56
2022/02/12 08:22:13;;;;;;;21.25;15.48;;;9.50;99.90;;;;;;5058399;28;20441;-57
2022/02/12 08:24:40;;;;;;;24.40;13.77;;;9.90;99.90;;;;;;5059105;28;20473;-57
2022/02/12 08:27:09;;;;;;;19.63;13.90;;;9.90;99.90;;;;;;5059445;28;20523;-58
2022/02/12 08:29:36;;;;;;;20.13;12.80;;;9.70;99.90;;;;;;5059582;28;20945;-57
2022/02/12 08:32:02;;;;;;;18.80;14.40;;;10.30;99.90;;;;;;5061252;28;20418;-57
2022/02/12 08:34:28;;;;;;;18.38;13.20;;;11.40;98.30;;;;;;5060122;28;20408;-57
2022/02/12 08:36:56;;;;;;;17.00;9.75;;;12.30;96.50;;;;;;5069178;28;20429;-56
2022/02/12 08:39:22;;;;;;;17.17;11.80;;;12.80;95.50;;;;;;5071979;28;20474;-56
2022/02/12 08:41:49;;;;;;;22.23;19.92;;;13.70;92.10;;;;;;5075390;28;20867;-56
2022/02/12 08:44:15;;;;;;;24.00;21.93;;;14.30;89.30;;;;;;5068322;28;20409;-56
2022/02/12 08:46:43;;;;;;;15.30;9.85;;;14.60;86.00;;;;;;5062451;28;20858;-57
2022/02/12 08:49:09;;;;;;;21.00;19.10;;;14.50;83.80;;;;;;5066759;28;20409;-57
2022/02/12 08:51:37;;;;;;;16.90;15.10;;;15.00;82.20;;;;;;5057884;28;20762;-56
2022/02/12 08:54:11;;;;;;;18.73;11.87;;;14.10;78.80;;;;;;5066189;28;20395;-59
2022/02/12 08:56:40;;;;;;;17.13;12.93;;;13.90;79.90;;;;;;5063076;28;20405;-57
2022/02/12 08:59:06;;;;;;;21.60;19.60;;;13.70;81.70;;;;;;5037571;28;20397;-59
2022/02/12 09:01:33;;;;;;;20.20;18.10;;;13.40;80.50;;;;;;5054912;28;20411;-57
2022/02/12 09:03:59;;;;;;;16.20;12.00;;;13.10;80.70;;;;;;5052162;28;20430;-57
2022/02/12 09:06:25;;;;;;;16.63;11.02;;;12.10;81.60;;;;;;5054838;28;20447;-56
2022/02/12 09:08:51;;;;;;;16.00;11.43;;;11.40;84.20;;;;;;5056263;28;20447;-57
2022/02/12 09:11:21;;;;;;;15.38;11.43;;;11.00;85.70;;;;;;5053980;28;20421;-57
2022/02/12 09:13:49;;;;;;;17.70;11.57;;;11.30;88.30;;;;;;5059184;28;21648;-58
2022/02/12 09:16:16;;;;;;;17.35;11.65;;;11.40;86.60;;;;;;5067694;28;20888;-58
2022/02/12 09:18:42;;;;;;;15.57;10.88;;;11.00;87.00;;;;;;5059397;28;20421;-58
2022/02/12 09:21:08;;;;;;;17.33;11.60;;;10.70;88.60;;;;;;5060539;28;20421;-59
2022/02/12 09:23:33;;;;;;;15.63;11.00;;;11.00;89.50;;;;;;5058305;28;20836;-58
2022/02/12 09:25:59;;;;;;;18.53;10.83;;;11.40;87.90;;;;;;5062839;28;21263;-57
2022/02/12 09:28:25;;;;;;;17.85;10.85;;;11.30;87.00;;;;;;5068987;28;20845;-57
2022/02/12 09:30:51;;;;;;;16.37;8.60;;;11.30;88.80;;;;;;5060422;28;20397;-57
2022/02/12 09:33:17;;;;;;;13.85;8.70;;;10.90;89.10;;;;;;5066147;28;20828;-57
2022/02/12 09:35:42;;;;;;;13.53;8.40;;;10.60;90.60;;;;;;5069554;28;20407;-58
2022/02/12 09:38:08;;;;;;;13.77;8.10;;;11.40;89.80;;;;;;5070575;28;20841;-59
2022/02/12 09:40:34;;;;;;;15.40;9.23;;;11.80;87.10;;;;;;5065576;28;20405;-57
2022/02/12 09:43:01;;;;;;;16.50;9.27;;;11.50;87.90;;;;;;5060718;28;20466;-58
2022/02/12 09:45:31;;;;;;;16.65;10.23;;;11.60;88.50;;;;;;5043875;28;20392;-58
2022/02/12 09:47:57;;;;;;;15.38;10.52;;;11.60;88.00;;;;;;5057643;28;20405;-58
2022/02/12 09:50:23;;;;;;;15.87;9.20;;;11.70;88.00;;;;;;5046747;28;20464;-58
2022/02/12 09:52:52;;;;;;;13.63;8.70;;;11.70;87.80;;;;;;5055097;28;20393;-60
2022/02/12 09:55:19;;;;;;;17.10;9.30;;;12.50;88.20;;;;;;5063916;28;20383;-58
2022/02/12 09:57:45;;;;;;;13.93;9.10;;;12.50;84.50;;;;;;5062227;28;20437;-58
2022/02/12 10:00:19;;;;;;;16.27;9.75;;;12.30;84.90;;;;;;5067357;28;21173;-59
2022/02/12 10:02:46;;;;;;;19.38;11.80;;;12.80;85.40;;;;;;5063063;28;20553;-58
2022/02/12 10:05:19;;;;;;;16.27;11.48;;;13.30;87.70;;;;;;5065841;28;20545;-58
2022/02/12 10:07:45;;;;;;;14.77;12.40;;;13.40;83.70;;;;;;5058640;28;20947;-58
2022/02/12 10:10:20;;;;;;;17.10;11.90;;;13.60;84.80;;;;;;5064322;28;20432;-58
2022/02/12 10:12:48;;;;;;;17.42;12.52;;;13.50;83.30;;;;;;5060546;28;20492;-58
2022/02/12 10:15:32;;;;;;;16.15;13.60;;;13.90;83.00;;;;;;5054184;28;20387;-59
2022/02/12 10:18:00;;;;;;;19.20;12.77;;;14.20;81.90;;;;;;5034261;28;20476;-60
2022/02/12 10:20:34;;;;;;;15.98;12.55;;;14.10;82.80;;;;;;5032822;28;20838;-59
2022/02/12 10:23:10;;;;;;;17.27;12.48;;;13.80;81.60;;;;;;5039455;28;20464;-59
2022/02/12 10:25:38;;;;;;;16.33;12.15;;;13.40;83.20;;;;;;5038783;28;20484;-59
2022/02/12 10:28:06;;;;;;;17.02;12.90;;;13.60;85.10;;;;;;5038665;28;20405;-59
2022/02/12 10:30:32;;;;;;;15.13;11.60;;;13.60;81.00;;;;;;5042883;28;20498;-59
2022/02/12 10:32:59;;;;;;;14.63;10.73;;;13.10;81.20;;;;;;5040013;28;20435;-58
2022/02/12 10:35:26;;;;;;;16.30;10.98;;;12.60;81.90;;;;;;5046647;28;20447;-58
2022/02/12 10:37:58;;;;;;;17.02;10.77;;;12.40;83.10;;;;;;5045771;28;20462;-58
2022/02/12 10:40:24;;;;;;;16.70;10.27;;;12.50;84.30;;;;;;5039577;28;20966;-58
2022/02/12 10:42:51;;;;;;;17.57;10.83;;;12.40;85.10;;;;;;5045030;28;20496;-58
2022/02/12 10:45:18;;;;;;;14.60;10.10;;;12.90;86.60;;;;;;5043176;28;20883;-58
2022/02/12 10:47:48;;;;;;;15.38;9.75;;;12.70;83.70;;;;;;5044334;28;20921;-58
2022/02/12 10:50:16;;;;;;;14.20;10.10;;;12.60;84.80;;;;;;5047631;28;20442;-55
2022/02/12 10:52:51;;;;;;;13.02;10.00;;;13.10;87.00;;;;;;5041798;28;20402;-55
2022/02/12 10:55:31;;;;;;;17.15;10.40;;;13.10;82.70;;;;;;5027998;28;20604;-55
2022/02/12 10:58:07;;;;;;;15.57;10.20;;;13.40;83.30;;;;;;5035353;28;20419;-58
2022/02/12 11:00:36;;;;;;;13.75;10.70;;;13.70;81.40;;;;;;5038488;28;20431;-58
2022/02/12 11:03:05;;;;;;;15.60;10.80;;;13.30;80.10;;;;;;5042932;28;20448;-57
2022/02/12 11:05:34;;;;;;;18.35;12.38;;;13.40;83.00;;;;;;5040916;28;20468;-58
2022/02/12 11:08:00;;;;;;;15.27;10.73;;;12.90;79.80;;;;;;5040427;28;20476;-58
2022/02/12 11:10:26;;;;;;;16.77;9.75;;;12.70;80.70;;;;;;5039207;28;20489;-58
2022/02/12 11:12:51;;;;;;;14.05;9.73;;;12.40;80.20;;;;;;5033384;28;20468;-58
2022/02/12 11:15:18;;;;;;;15.60;9.70;;;12.80;80.40;;;;;;5028273;28;20888;-56
2022/02/12 11:17:45;;;;;;;16.55;10.23;;;13.20;80.60;;;;;;5046479;28;20416;-56
2022/02/12 11:20:13;;;;;;;13.40;9.10;;;13.50;79.70;;;;;;5048061;28;20468;-60
2022/02/12 11:22:40;;;;;;;16.17;9.87;;;13.90;76.90;;;;;;5048794;28;20434;-58
2022/02/12 11:25:36;;;;;;;12.70;9.50;;;13.50;78.60;;;;;;5054099;28;20403;-57
2022/02/12 11:28:10;;;;;;;13.60;9.90;;;13.20;76.00;;;;;;5051273;28;20431;-56
2022/02/12 11:30:38;;;;;;;16.67;9.75;;;12.60;77.10;;;;;;5049821;28;20397;-57
2022/02/12 11:33:21;;;;;;;13.75;9.40;;;12.00;79.90;;;;;;5054452;28;20466;-56
2022/02/12 11:36:12;;;;;;;13.02;9.32;;;12.00;79.10;;;;;;5057928;28;20416;-56
2022/02/12 11:38:40;;;;;;;13.48;9.07;;;11.70;80.80;;;;;;5054688;28;20416;-57
2022/02/12 11:41:23;;;;;;;14.90;8.70;;;11.10;81.70;;;;;;5062126;28;20450;-58
2022/02/12 11:43:50;;;;;;;11.93;8.57;;;10.60;81.80;;;;;;5063277;28;20406;-56
2022/02/12 11:46:51;;;;;;;11.65;7.97;;;9.70;83.30;;;;;;5063810;28;20468;-57
2022/02/12 11:49:49;;;;;;;12.75;6.80;;;9.10;86.60;;;;;;5052492;28;20405;-57
2022/02/12 11:52:17;;;;;;;11.93;6.80;;;9.00;88.20;;;;;;5006213;28;20417;-57
2022/02/12 11:54:57;;;;;;;12.80;6.60;;;8.60;88.60;;;;;;5048310;28;20778;-57
2022/02/12 11:57:25;;;;;;;13.35;6.00;;;8.30;89.90;;;;;;5052562;28;20428;-57
2022/02/12 12:00:00;;;;;;;11.85;6.43;;;8.40;90.90;;;;;;5057170;28;20406;-56
2022/02/12 12:02:45;;;;;;;12.57;6.57;;;8.20;89.10;;;;;;5039656;28;20490;-57
2022/02/12 12:05:20;;;;;;;12.27;6.00;;;8.10;89.70;;;;;;5058503;28;20443;-59
2022/02/12 12:08:07;;;;;;;12.85;5.85;;;8.30;89.60;;;;;;5059363;28;20486;-57
2022/02/12 12:10:53;;;;;;;11.15;5.10;;;8.60;90.00;;;;;;5058057;28;20448;-56
2022/02/12 12:13:20;;;;;;;12.85;5.72;;;8.50;89.70;;;;;;5054457;28;20414;-56
2022/02/12 12:15:50;;;;;;;13.13;5.80;;;8.50;89.30;;;;;;5056214;28;20405;-56
2022/02/12 12:18:16;;;;;;;10.00;5.30;;;8.60;89.80;;;;;;5051963;28;20854;-57
2022/02/12 12:20:44;;;;;;;11.25;5.30;;;8.70;89.70;;;;;;5051101;28;20445;-57
2022/02/12 12:23:14;;;;;;;15.52;5.60;;;8.70;89.50;;;;;;5063656;28;20932;-58
2022/02/12 12:26:06;;;;;;;8.32;5.10;;;8.70;88.10;;;;;;5065018;28;20436;-58
2022/02/12 12:28:38;;;;;;;9.20;4.55;;;8.50;83.10;;;;;;5058577;28;20405;-56
2022/02/12 12:31:07;;;;;;;8.48;4.55;;;8.50;83.80;;;;;;5052985;28;20447;-57
2022/02/12 12:33:40;;;;;;;10.80;5.05;;;8.60;84.10;;;;;;5056238;28;20993;-57
2022/02/12 12:36:12;;;;;;;10.20;5.03;;;8.60;83.10;;;;;;5061497;28;20404;-57
2022/02/12 12:38:56;;;;;;;9.98;4.55;;;8.90;84.50;;;;;;5059262;28;20430;-57
2022/02/12 12:41:23;;;;;;;8.70;5.07;;;9.00;82.40;;;;;;5064018;28;20773;-57
2022/02/12 12:44:14;;;;;;;7.50;5.30;;;8.80;77.30;;;;;;5057101;28;20441;-57
2022/02/12 12:46:44;;;;;;;9.20;5.30;;;8.50;77.10;;;;;;5063622;28;20410;-56